Sterrett, Alabama
Current Conditions -  °F | °C
As of 11:53 AM on Thursday 27 Nov 2014 (Local Time) from KBHM Reporting Station
Overcast Overcast  
Wind Chill: 39°   Ceiling: 3900
Heat Index: 45°   Visibility: 10mi
Dew Point: 29°   Wind: 13mph
Humidity: 53%   Direction: 330°NNW
Pressure: 30.4"   Gusts: NA
Location:  33.45°N, 86.48°W
Report Text: KBHM 271753Z 33011KT 10SM OVC039 07/M02 A3040 RMK AO2 SLP294 T00721017 10072 20028 50005
Loading
Personal Weather Stations






























Interactive Weather Map New forecast layout! Learn more

10-Day Weather Forecast

Advertisements
Track Severe Weather on mobile